sensor_id;sensor_type;location;lat;lon;timestamp;pressure;altitude;pressure_sealevel;temperature;humidity
23473;BME280;11909;52.516;13.564;2024-03-07T00:00:07;101848.00;;;5.64;100.00
23473;BME280;11909;52.516;13.564;2024-03-07T00:02:41;101845.47;;;5.62;100.00
23473;BME280;11909;52.516;13.564;2024-03-07T00:05:10;101842.75;;;5.62;100.00
23473;BME280;11909;52.516;13.564;2024-03-07T00:07:39;101846.09;;;5.64;100.00
23473;BME280;11909;52.516;13.564;2024-03-07T00:10:09;101845.69;;;5.67;100.00
23473;BME280;11909;52.516;13.564;2024-03-07T00:12:38;101853.63;;;5.69;100.00
23473;BME280;11909;52.516;13.564;2024-03-07T00:15:07;101846.28;;;5.69;100.00
23473;BME280;11909;52.516;13.564;2024-03-07T00:17:36;101852.34;;;5.71;100.00
23473;BME280;11909;52.516;13.564;2024-03-07T00:20:06;101855.69;;;5.73;100.00
23473;BME280;11909;52.516;13.564;2024-03-07T00:22:36;101848.34;;;5.74;100.00
23473;BME280;11909;52.516;13.564;2024-03-07T00:25:05;101859.47;;;5.72;100.00
23473;BME280;11909;52.516;13.564;2024-03-07T00:27:35;101858.63;;;5.72;100.00
23473;BME280;11909;52.516;13.564;2024-03-07T00:30:04;101862.41;;;5.71;100.00
23473;BME280;11909;52.516;13.564;2024-03-07T00:32:35;101862.03;;;5.67;100.00
23473;BME280;11909;52.516;13.564;2024-03-07T00:35:07;101857.63;;;5.66;100.00
23473;BME280;11909;52.516;13.564;2024-03-07T00:37:36;101864.94;;;5.66;100.00
23473;BME280;11909;52.516;13.564;2024-03-07T00:40:06;101861.63;;;5.64;100.00
23473;BME280;11909;52.516;13.564;2024-03-07T00:42:35;101859.94;;;5.63;100.00
23473;BME280;11909;52.516;13.564;2024-03-07T00:45:04;101855.56;;;5.62;100.00
23473;BME280;11909;52.516;13.564;2024-03-07T00:47:32;101860.75;;;5.63;100.00
23473;BME280;11909;52.516;13.564;2024-03-07T00:50:00;101856.38;;;5.62;100.00
23473;BME280;11909;52.516;13.564;2024-03-07T00:52:28;101857.44;;;5.61;100.00
23473;BME280;11909;52.516;13.564;2024-03-07T00:54:56;101855.16;;;5.58;100.00
23473;BME280;11909;52.516;13.564;2024-03-07T00:57:24;101854.72;;;5.61;100.00
23473;BME280;11909;52.516;13.564;2024-03-07T00:59:53;101859.78;;;5.57;100.00
23473;BME280;11909;52.516;13.564;2024-03-07T01:02:22;101861.44;;;5.58;100.00
23473;BME280;11909;52.516;13.564;2024-03-07T01:04:51;101858.91;;;5.64;100.00
23473;BME280;11909;52.516;13.564;2024-03-07T01:07:20;101859.50;;;5.66;100.00
23473;BME280;11909;52.516;13.564;2024-03-07T01:09:50;101861.00;;;5.62;100.00
23473;BME280;11909;52.516;13.564;2024-03-07T01:12:17;101855.75;;;5.60;100.00
23473;BME280;11909;52.516;13.564;2024-03-07T01:14:46;101866.47;;;5.55;100.00
23473;BME280;11909;52.516;13.564;2024-03-07T01:17:16;101870.06;;;5.55;100.00
23473;BME280;11909;52.516;13.564;2024-03-07T01:19:44;101866.94;;;5.52;100.00
23473;BME280;11909;52.516;13.564;2024-03-07T01:22:12;101863.34;;;5.51;100.00
23473;BME280;11909;52.516;13.564;2024-03-07T01:24:39;101865.69;;;5.48;100.00
23473;BME280;11909;52.516;13.564;2024-03-07T01:27:07;101865.88;;;5.53;100.00
23473;BME280;11909;52.516;13.564;2024-03-07T01:29:35;101871.16;;;5.48;100.00
23473;BME280;11909;52.516;13.564;2024-03-07T01:32:03;101868.00;;;5.44;100.00
23473;BME280;11909;52.516;13.564;2024-03-07T01:34:33;101872.63;;;5.43;100.00
23473;BME280;11909;52.516;13.564;2024-03-07T01:37:01;101869.06;;;5.43;100.00
23473;BME280;11909;52.516;13.564;2024-03-07T01:39:32;101868.03;;;5.37;100.00
23473;BME280;11909;52.516;13.564;2024-03-07T01:42:00;101871.81;;;5.36;100.00
23473;BME280;11909;52.516;13.564;2024-03-07T01:44:28;101872.06;;;5.35;100.00
23473;BME280;11909;52.516;13.564;2024-03-07T01:46:58;101877.94;;;5.31;100.00
23473;BME280;11909;52.516;13.564;2024-03-07T01:49:27;101877.28;;;5.29;100.00
23473;BME280;11909;52.516;13.564;2024-03-07T01:51:56;101890.34;;;5.21;100.00
23473;BME280;11909;52.516;13.564;2024-03-07T01:54:25;101881.97;;;5.15;100.00
23473;BME280;11909;52.516;13.564;2024-03-07T01:56:55;101879.50;;;5.07;100.00
23473;BME280;11909;52.516;13.564;2024-03-07T01:59:24;101883.91;;;5.01;100.00
23473;BME280;11909;52.516;13.564;2024-03-07T02:01:53;101887.28;;;4.97;100.00
23473;BME280;11909;52.516;13.564;2024-03-07T02:04:22;101883.97;;;4.88;100.00
23473;BME280;11909;52.516;13.564;2024-03-07T02:06:50;101887.31;;;4.83;100.00
23473;BME280;11909;52.516;13.564;2024-03-07T02:09:21;101875.22;;;4.72;100.00
23473;BME280;11909;52.516;13.564;2024-03-07T02:11:49;101882.53;;;4.72;100.00
23473;BME280;11909;52.516;13.564;2024-03-07T02:14:18;101871.47;;;4.67;100.00
23473;BME280;11909;52.516;13.564;2024-03-07T02:16:45;101870.00;;;4.64;100.00
23473;BME280;11909;52.516;13.564;2024-03-07T02:19:14;101875.66;;;4.63;100.00
23473;BME280;11909;52.516;13.564;2024-03-07T02:21:44;101869.59;;;4.61;100.00
23473;BME280;11909;52.516;13.564;2024-03-07T02:24:12;101863.13;;;4.55;100.00
23473;BME280;11909;52.516;13.564;2024-03-07T02:26:40;101852.91;;;4.50;100.00
23473;BME280;11909;52.516;13.564;2024-03-07T02:29:09;101859.16;;;4.51;100.00
23473;BME280;11909;52.516;13.564;2024-03-07T02:31:37;101860.63;;;4.47;100.00
23473;BME280;11909;52.516;13.564;2024-03-07T02:34:08;101852.91;;;4.43;100.00
23473;BME280;11909;52.516;13.564;2024-03-07T02:36:36;101856.06;;;4.40;100.00
23473;BME280;11909;52.516;13.564;2024-03-07T02:39:05;101860.88;;;4.38;100.00
23473;BME280;11909;52.516;13.564;2024-03-07T02:41:33;101850.81;;;4.32;100.00
23473;BME280;11909;52.516;13.564;2024-03-07T02:44:02;101850.63;;;4.27;100.00
23473;BME280;11909;52.516;13.564;2024-03-07T02:46:30;101844.56;;;4.25;100.00
23473;BME280;11909;52.516;13.564;2024-03-07T02:48:59;101845.63;;;4.24;100.00
23473;BME280;11909;52.516;13.564;2024-03-07T02:51:27;101846.44;;;4.24;100.00
23473;BME280;11909;52.516;13.564;2024-03-07T02:53:55;101849.38;;;4.23;100.00
23473;BME280;11909;52.516;13.564;2024-03-07T02:56:25;101850.63;;;4.20;100.00
23473;BME280;11909;52.516;13.564;2024-03-07T02:58:53;101848.94;;;4.12;100.00
23473;BME280;11909;52.516;13.564;2024-03-07T03:01:22;101859.00;;;4.05;100.00
23473;BME280;11909;52.516;13.564;2024-03-07T03:03:49;101850.63;;;4.00;100.00
23473;BME280;11909;52.516;13.564;2024-03-07T03:06:17;101852.94;;;3.96;100.00
23473;BME280;11909;52.516;13.564;2024-03-07T03:08:46;101852.72;;;3.91;100.00
23473;BME280;11909;52.516;13.564;2024-03-07T03:11:15;101852.28;;;3.87;100.00
23473;BME280;11909;52.516;13.564;2024-03-07T03:13:44;101851.47;;;3.87;100.00
23473;BME280;11909;52.516;13.564;2024-03-07T03:16:13;101857.53;;;3.82;100.00
23473;BME280;11909;52.516;13.564;2024-03-07T03:18:42;101852.50;;;3.79;100.00
23473;BME280;11909;52.516;13.564;2024-03-07T03:21:09;101856.28;;;3.78;100.00
23473;BME280;11909;52.516;13.564;2024-03-07T03:23:38;101853.97;;;3.75;100.00
23473;BME280;11909;52.516;13.564;2024-03-07T03:26:07;101859.59;;;3.73;100.00
23473;BME280;11909;52.516;13.564;2024-03-07T03:28:35;101855.03;;;3.74;100.00
23473;BME280;11909;52.516;13.564;2024-03-07T03:31:05;101861.28;;;3.75;100.00
23473;BME280;11909;52.516;13.564;2024-03-07T03:33:34;101863.97;;;3.68;100.00
23473;BME280;11909;52.516;13.564;2024-03-07T03:36:03;101874.63;;;3.69;100.00
23473;BME280;11909;52.516;13.564;2024-03-07T03:38:32;101881.75;;;3.70;100.00
23473;BME280;11909;52.516;13.564;2024-03-07T03:40:59;101881.09;;;3.62;100.00
23473;BME280;11909;52.516;13.564;2024-03-07T03:43:27;101880.03;;;3.63;100.00
23473;BME280;11909;52.516;13.564;2024-03-07T03:45:57;101887.56;;;3.61;100.00
23473;BME280;11909;52.516;13.564;2024-03-07T03:48:26;101884.63;;;3.55;100.00
23473;BME280;11909;52.516;13.564;2024-03-07T03:50:54;101882.75;;;3.49;100.00
23473;BME280;11909;52.516;13.564;2024-03-07T03:53:22;101889.22;;;3.48;100.00
23473;BME280;11909;52.516;13.564;2024-03-07T03:55:50;101881.72;;;3.50;100.00
23473;BME280;11909;52.516;13.564;2024-03-07T03:58:18;101890.66;;;3.51;100.00
23473;BME280;11909;52.516;13.564;2024-03-07T04:00:46;101899.22;;;3.48;100.00
23473;BME280;11909;52.516;13.564;2024-03-07T04:03:14;101904.88;;;3.46;100.00
23473;BME280;11909;52.516;13.564;2024-03-07T04:05:44;101904.03;;;3.46;100.00
23473;BME280;11909;52.516;13.564;2024-03-07T04:08:13;101909.66;;;3.44;100.00
23473;BME280;11909;52.516;13.564;2024-03-07T04:10:41;101907.97;;;3.43;100.00
23473;BME280;11909;52.516;13.564;2024-03-07T04:13:09;101907.56;;;3.39;100.00
23473;BME280;11909;52.516;13.564;2024-03-07T04:15:37;101904.22;;;3.37;100.00
23473;BME280;11909;52.516;13.564;2024-03-07T04:18:10;101906.31;;;3.35;100.00
23473;BME280;11909;52.516;13.564;2024-03-07T04:20:38;101903.59;;;3.35;100.00
23473;BME280;11909;52.516;13.564;2024-03-07T04:23:08;101918.16;;;3.27;100.00
23473;BME280;11909;52.516;13.564;2024-03-07T04:25:38;101913.75;;;3.20;100.00
23473;BME280;11909;52.516;13.564;2024-03-07T04:28:06;101920.81;;;3.14;100.00
23473;BME280;11909;52.516;13.564;2024-03-07T04:30:34;101907.66;;;3.11;100.00
23473;BME280;11909;52.516;13.564;2024-03-07T04:33:02;101911.81;;;3.07;100.00
23473;BME280;11909;52.516;13.564;2024-03-07T04:35:31;101908.66;;;3.03;100.00
23473;BME280;11909;52.516;13.564;2024-03-07T04:37:59;101918.88;;;3.01;100.00
23473;BME280;11909;52.516;13.564;2024-03-07T04:40:28;101913.63;;;2.99;100.00
23473;BME280;11909;52.516;13.564;2024-03-07T04:42:56;101913.84;;;2.98;100.00
23473;BME280;11909;52.516;13.564;2024-03-07T04:45:24;101919.88;;;2.93;100.00
23473;BME280;11909;52.516;13.564;2024-03-07T04:47:51;101916.50;;;2.91;100.00
23473;BME280;11909;52.516;13.564;2024-03-07T04:50:20;101915.88;;;2.89;100.00
23473;BME280;11909;52.516;13.564;2024-03-07T04:52:48;101910.06;;;2.92;100.00
23473;BME280;11909;52.516;13.564;2024-03-07T04:55:16;101908.59;;;2.96;100.00
23473;BME280;11909;52.516;13.564;2024-03-07T04:57:46;101918.00;;;2.94;100.00
23473;BME280;11909;52.516;13.564;2024-03-07T05:00:15;101921.13;;;2.91;100.00
23473;BME280;11909;52.516;13.564;2024-03-07T05:02:48;101916.69;;;2.83;100.00
23473;BME280;11909;52.516;13.564;2024-03-07T05:05:18;101922.06;;;2.76;100.00
23473;BME280;11909;52.516;13.564;2024-03-07T05:07:50;101920.78;;;2.72;100.00
23473;BME280;11909;52.516;13.564;2024-03-07T05:10:18;101928.06;;;2.71;100.00
23473;BME280;11909;52.516;13.564;2024-03-07T05:12:47;101927.25;;;2.71;100.00
23473;BME280;11909;52.516;13.564;2024-03-07T05:15:16;101927.66;;;2.68;100.00
23473;BME280;11909;52.516;13.564;2024-03-07T05:17:44;101930.09;;;2.63;100.00
23473;BME280;11909;52.516;13.564;2024-03-07T05:20:13;101923.22;;;2.60;100.00
23473;BME280;11909;52.516;13.564;2024-03-07T05:22:41;101930.94;;;2.63;100.00
23473;BME280;11909;52.516;13.564;2024-03-07T05:25:11;101939.47;;;2.60;100.00
23473;BME280;11909;52.516;13.564;2024-03-07T05:27:39;101938.44;;;2.61;100.00
23473;BME280;11909;52.516;13.564;2024-03-07T05:30:09;101933.84;;;2.62;100.00
23473;BME280;11909;52.516;13.564;2024-03-07T05:32:40;101939.09;;;2.63;100.00
23473;BME280;11909;52.516;13.564;2024-03-07T05:35:08;101938.50;;;2.68;100.00
23473;BME280;11909;52.516;13.564;2024-03-07T05:37:38;101951.69;;;2.78;100.00
23473;BME280;11909;52.516;13.564;2024-03-07T05:40:09;101942.66;;;2.70;100.00
23473;BME280;11909;52.516;13.564;2024-03-07T05:42:37;101941.22;;;2.68;100.00
23473;BME280;11909;52.516;13.564;2024-03-07T05:45:05;101947.22;;;2.63;100.00
23473;BME280;11909;52.516;13.564;2024-03-07T05:47:36;101959.97;;;2.69;100.00
23473;BME280;11909;52.516;13.564;2024-03-07T05:50:05;101954.50;;;2.63;100.00
23473;BME280;11909;52.516;13.564;2024-03-07T05:52:35;101959.88;;;2.56;100.00
23473;BME280;11909;52.516;13.564;2024-03-07T05:55:04;101961.56;;;2.57;100.00
23473;BME280;11909;52.516;13.564;2024-03-07T05:57:33;101960.47;;;2.51;100.00
23473;BME280;11909;52.516;13.564;2024-03-07T06:00:01;101955.44;;;2.48;100.00
23473;BME280;11909;52.516;13.564;2024-03-07T06:02:39;101962.28;;;2.44;100.00
23473;BME280;11909;52.516;13.564;2024-03-07T06:05:07;101963.34;;;2.50;100.00
23473;BME280;11909;52.516;13.564;2024-03-07T06:07:41;101963.75;;;2.47;100.00
23473;BME280;11909;52.516;13.564;2024-03-07T06:10:09;101962.28;;;2.44;100.00
23473;BME280;11909;52.516;13.564;2024-03-07T06:12:37;101971.19;;;2.38;100.00
23473;BME280;11909;52.516;13.564;2024-03-07T06:15:30;101973.47;;;2.34;100.00
23473;BME280;11909;52.516;13.564;2024-03-07T06:18:00;101975.78;;;2.37;100.00
23473;BME280;11909;52.516;13.564;2024-03-07T06:20:28;101974.34;;;2.41;100.00
23473;BME280;11909;52.516;13.564;2024-03-07T06:22:56;101979.75;;;2.41;100.00
23473;BME280;11909;52.516;13.564;2024-03-07T06:25:24;101978.28;;;2.39;100.00
23473;BME280;11909;52.516;13.564;2024-03-07T06:28:04;101986.41;;;2.39;100.00
23473;BME280;11909;52.516;13.564;2024-03-07T06:30:38;101984.53;;;2.39;100.00
23473;BME280;11909;52.516;13.564;2024-03-07T06:33:08;101980.22;;;2.45;100.00
23473;BME280;11909;52.516;13.564;2024-03-07T06:35:38;101985.44;;;2.47;100.00
23473;BME280;11909;52.516;13.564;2024-03-07T06:38:07;101983.81;;;2.52;100.00
23473;BME280;11909;52.516;13.564;2024-03-07T06:40:36;101997.94;;;2.48;100.00
23473;BME280;11909;52.516;13.564;2024-03-07T06:43:04;101991.78;;;2.54;100.00
23473;BME280;11909;52.516;13.564;2024-03-07T06:45:33;102010.75;;;2.54;100.00
23473;BME280;11909;52.516;13.564;2024-03-07T06:48:04;102010.91;;;2.52;100.00
23473;BME280;11909;52.516;13.564;2024-03-07T06:50:35;102018.09;;;2.60;100.00
23473;BME280;11909;52.516;13.564;2024-03-07T06:53:05;102019.34;;;2.64;100.00
23473;BME280;11909;52.516;13.564;2024-03-07T06:55:35;102019.34;;;2.64;100.00
23473;BME280;11909;52.516;13.564;2024-03-07T06:58:03;102028.78;;;2.68;100.00
23473;BME280;11909;52.516;13.564;2024-03-07T07:00:33;102025.88;;;2.70;100.00
23473;BME280;11909;52.516;13.564;2024-03-07T07:03:04;102031.31;;;2.70;100.00
23473;BME280;11909;52.516;13.564;2024-03-07T07:05:32;102034.44;;;2.73;100.00
23473;BME280;11909;52.516;13.564;2024-03-07T07:08:04;102038.47;;;2.78;100.00
23473;BME280;11909;52.516;13.564;2024-03-07T07:10:33;102048.38;;;2.70;100.00
23473;BME280;11909;52.516;13.564;2024-03-07T07:13:03;102059.28;;;2.77;100.00
23473;BME280;11909;52.516;13.564;2024-03-07T07:15:32;102055.72;;;2.77;100.00
23473;BME280;11909;52.516;13.564;2024-03-07T07:18:01;102059.28;;;2.77;100.00
23473;BME280;11909;52.516;13.564;2024-03-07T07:20:30;102067.88;;;2.81;100.00
23473;BME280;11909;52.516;13.564;2024-03-07T07:23:01;102066.84;;;2.82;100.00
23473;BME280;11909;52.516;13.564;2024-03-07T07:25:32;102071.25;;;2.83;100.00
23473;BME280;11909;52.516;13.564;2024-03-07T07:28:00;102069.00;;;2.93;100.00
23473;BME280;11909;52.516;13.564;2024-03-07T07:30:32;102086.31;;;2.92;100.00
23473;BME280;11909;52.516;13.564;2024-03-07T07:33:00;102073.63;;;2.93;100.00
23473;BME280;11909;52.516;13.564;2024-03-07T07:35:28;102088.63;;;2.95;100.00
23473;BME280;11909;52.516;13.564;2024-03-07T07:37:56;102089.53;;;3.03;100.00
23473;BME280;11909;52.516;13.564;2024-03-07T07:40:24;102086.63;;;3.04;100.00
23473;BME280;11909;52.516;13.564;2024-03-07T07:42:56;102091.47;;;3.09;100.00
23473;BME280;11909;52.516;13.564;2024-03-07T07:45:24;102093.16;;;3.10;100.00
23473;BME280;11909;52.516;13.564;2024-03-07T07:47:53;102091.53;;;3.15;100.00
23473;BME280;11909;52.516;13.564;2024-03-07T07:50:23;102092.22;;;3.24;100.00
23473;BME280;11909;52.516;13.564;2024-03-07T07:52:53;102092.00;;;3.26;100.00
23473;BME280;11909;52.516;13.564;2024-03-07T07:55:23;102090.31;;;3.25;100.00
23473;BME280;11909;52.516;13.564;2024-03-07T07:57:53;102086.41;;;3.34;100.00
23473;BME280;11909;52.516;13.564;2024-03-07T08:00:24;102097.13;;;3.42;100.00
23473;BME280;11909;52.516;13.564;2024-03-07T08:02:57;102098.59;;;3.45;100.00
23473;BME280;11909;52.516;13.564;2024-03-07T08:05:27;102095.28;;;3.50;100.00
23473;BME280;11909;52.516;13.564;2024-03-07T08:07:58;102102.03;;;3.61;100.00
23473;BME280;11909;52.516;13.564;2024-03-07T08:10:28;102106.47;;;3.68;100.00
23473;BME280;11909;52.516;13.564;2024-03-07T08:12:56;102092.31;;;3.80;100.00
23473;BME280;11909;52.516;13.564;2024-03-07T08:15:28;102098.63;;;3.87;100.00
23473;BME280;11909;52.516;13.564;2024-03-07T08:17:57;102108.25;;;3.96;100.00
23473;BME280;11909;52.516;13.564;2024-03-07T08:20:27;102108.47;;;3.95;100.00
23473;BME280;11909;52.516;13.564;2024-03-07T08:22:56;102104.72;;;4.02;100.00
23473;BME280;11909;52.516;13.564;2024-03-07T08:25:27;102113.53;;;4.11;100.00
23473;BME280;11909;52.516;13.564;2024-03-07T08:27:56;102122.53;;;4.12;100.00
23473;BME280;11909;52.516;13.564;2024-03-07T08:30:26;102123.00;;;4.22;100.00
23473;BME280;11909;52.516;13.564;2024-03-07T08:32:56;102124.47;;;4.25;100.00
23473;BME280;11909;52.516;13.564;2024-03-07T08:35:26;102124.88;;;4.22;100.00
23473;BME280;11909;52.516;13.564;2024-03-07T08:37:55;102120.94;;;4.31;100.00
23473;BME280;11909;52.516;13.564;2024-03-07T08:40:25;102118.25;;;4.38;100.00
23473;BME280;11909;52.516;13.564;2024-03-07T08:42:55;102120.78;;;4.53;100.00
23473;BME280;11909;52.516;13.564;2024-03-07T08:45:24;102126.44;;;4.58;100.00
23473;BME280;11909;52.516;13.564;2024-03-07T08:47:55;102124.34;;;4.67;100.00
23473;BME280;11909;52.516;13.564;2024-03-07T08:50:25;102125.63;;;4.78;100.00
23473;BME280;11909;52.516;13.564;2024-03-07T08:52:55;102127.31;;;4.85;100.00
23473;BME280;11909;52.516;13.564;2024-03-07T08:55:24;102123.56;;;5.00;100.00
23473;BME280;11909;52.516;13.564;2024-03-07T08:57:53;102130.03;;;5.06;100.00
23473;BME280;11909;52.516;13.564;2024-03-07T09:00:22;102129.00;;;5.07;100.00
23473;BME280;11909;52.516;13.564;2024-03-07T09:02:54;102132.34;;;5.15;100.00
23473;BME280;11909;52.516;13.564;2024-03-07T09:05:28;102134.66;;;5.25;100.00
23473;BME280;11909;52.516;13.564;2024-03-07T09:07:56;102136.94;;;5.35;100.00
23473;BME280;11909;52.516;13.564;2024-03-07T09:10:25;102140.47;;;5.49;99.94
23473;BME280;11909;52.516;13.564;2024-03-07T09:12:56;102137.13;;;5.54;99.71
23473;BME280;11909;52.516;13.564;2024-03-07T09:15:24;102130.41;;;5.63;99.31
23473;BME280;11909;52.516;13.564;2024-03-07T09:17:53;102138.97;;;5.80;98.90
23473;BME280;11909;52.516;13.564;2024-03-07T09:20:21;102140.16;;;6.05;94.57
23473;BME280;11909;52.516;13.564;2024-03-07T09:22:51;102144.09;;;6.22;85.63
23473;BME280;11909;52.516;13.564;2024-03-07T09:25:22;102159.56;;;6.28;83.22
23473;BME280;11909;52.516;13.564;2024-03-07T09:27:51;102149.06;;;6.32;82.81
23473;BME280;11909;52.516;13.564;2024-03-07T09:30:19;102145.63;;;6.50;83.82
23473;BME280;11909;52.516;13.564;2024-03-07T09:32:51;102140.09;;;6.64;82.25
23473;BME280;11909;52.516;13.564;2024-03-07T09:35:24;102145.56;;;6.89;80.54
23473;BME280;11909;52.516;13.564;2024-03-07T09:37:52;102150.53;;;6.99;77.82
23473;BME280;11909;52.516;13.564;2024-03-07T09:40:21;102145.38;;;7.16;78.49
23473;BME280;11909;52.516;13.564;2024-03-07T09:42:51;102141.00;;;7.34;79.20
23473;BME280;11909;52.516;13.564;2024-03-07T09:45:22;102149.72;;;7.49;73.97
23473;BME280;11909;52.516;13.564;2024-03-07T09:47:52;102151.41;;;7.69;72.77
23473;BME280;11909;52.516;13.564;2024-03-07T09:50:21;102159.69;;;7.81;70.14
23473;BME280;11909;52.516;13.564;2024-03-07T09:52:52;102152.09;;;7.83;70.55
23473;BME280;11909;52.516;13.564;2024-03-07T09:55:21;102146.78;;;7.88;69.12
23473;BME280;11909;52.516;13.564;2024-03-07T09:57:53;102149.28;;;8.08;68.57
23473;BME280;11909;52.516;13.564;2024-03-07T10:00:24;102148.44;;;8.08;65.69
23473;BME280;11909;52.516;13.564;2024-03-07T10:02:57;102145.56;;;8.21;68.29
23473;BME280;11909;52.516;13.564;2024-03-07T10:05:26;102160.25;;;8.39;62.12
23473;BME280;11909;52.516;13.564;2024-03-07T10:07:58;102143.16;;;8.43;62.92
23473;BME280;11909;52.516;13.564;2024-03-07T10:10:26;102146.22;;;8.54;61.82
23473;BME280;11909;52.516;13.564;2024-03-07T10:12:54;102148.25;;;8.70;62.36
23473;BME280;11909;52.516;13.564;2024-03-07T10:15:27;102142.81;;;8.82;61.87
23473;BME280;11909;52.516;13.564;2024-03-07T10:17:55;102137.38;;;8.94;62.88
23473;BME280;11909;52.516;13.564;2024-03-07T10:20:23;102132.28;;;9.10;61.10
23473;BME280;11909;52.516;13.564;2024-03-07T10:22:51;102143.63;;;9.13;58.88
23473;BME280;11909;52.516;13.564;2024-03-07T10:25:21;102135.41;;;9.13;58.04
23473;BME280;11909;52.516;13.564;2024-03-07T10:27:51;102130.25;;;9.05;58.97
23473;BME280;11909;52.516;13.564;2024-03-07T10:30:19;102130.03;;;9.07;56.75
23473;BME280;11909;52.516;13.564;2024-03-07T10:32:51;102141.19;;;8.93;56.06
23473;BME280;11909;52.516;13.564;2024-03-07T10:35:22;102132.63;;;8.89;55.39
23473;BME280;11909;52.516;13.564;2024-03-07T10:37:52;102132.50;;;8.96;56.75
23473;BME280;11909;52.516;13.564;2024-03-07T10:40:22;102133.81;;;8.94;56.72
23473;BME280;11909;52.516;13.564;2024-03-07T10:42:56;102125.84;;;9.04;56.27
23473;BME280;11909;52.516;13.564;2024-03-07T10:45:28;102119.78;;;9.14;57.10
23473;BME280;11909;52.516;13.564;2024-03-07T10:47:57;102120.03;;;9.12;56.58
23473;BME280;11909;52.516;13.564;2024-03-07T10:50:38;102109.53;;;9.21;57.31
23473;BME280;11909;52.516;13.564;2024-03-07T10:53:19;102116.84;;;9.27;57.32
23473;BME280;11909;52.516;13.564;2024-03-07T10:56:09;102113.63;;;9.30;56.38
23473;BME280;11909;52.516;13.564;2024-03-07T10:58:47;102115.03;;;9.45;55.79
23473;BME280;11909;52.516;13.564;2024-03-07T11:01:20;102114.69;;;9.41;56.04
23473;BME280;11909;52.516;13.564;2024-03-07T11:03:49;102112.75;;;9.42;55.11
23473;BME280;11909;52.516;13.564;2024-03-07T11:06:20;102116.34;;;9.42;54.44
23473;BME280;11909;52.516;13.564;2024-03-07T11:08:48;102121.94;;;9.36;53.56
23473;BME280;11909;52.516;13.564;2024-03-07T11:11:19;102120.28;;;9.35;53.58
23473;BME280;11909;52.516;13.564;2024-03-07T11:13:51;102114.56;;;9.36;53.16
23473;BME280;11909;52.516;13.564;2024-03-07T11:16:21;102112.16;;;9.40;53.46
23473;BME280;11909;52.516;13.564;2024-03-07T11:19:18;102105.63;;;9.41;54.43
23473;BME280;11909;52.516;13.564;2024-03-07T11:21:48;102108.00;;;9.49;55.74
23473;BME280;11909;52.516;13.564;2024-03-07T11:24:26;102100.59;;;9.50;56.72
23473;BME280;11909;52.516;13.564;2024-03-07T11:26:57;102100.38;;;9.39;54.90
23473;BME280;11909;52.516;13.564;2024-03-07T11:29:42;102085.50;;;9.47;56.95
23473;BME280;11909;52.516;13.564;2024-03-07T11:32:13;102084.66;;;9.35;56.03
23473;BME280;11909;52.516;13.564;2024-03-07T11:34:42;102083.94;;;9.39;56.34
23473;BME280;11909;52.516;13.564;2024-03-07T11:37:17;102088.94;;;9.54;54.11
23473;BME280;11909;52.516;13.564;2024-03-07T11:39:47;102086.78;;;9.56;53.57
23473;BME280;11909;52.516;13.564;2024-03-07T11:42:21;102082.88;;;9.52;53.45
23473;BME280;11909;52.516;13.564;2024-03-07T11:44:52;102080.84;;;9.47;55.06
23473;BME280;11909;52.516;13.564;2024-03-07T11:47:23;102078.34;;;9.58;56.80
23473;BME280;11909;52.516;13.564;2024-03-07T11:49:52;102083.19;;;9.68;53.67
23473;BME280;11909;52.516;13.564;2024-03-07T11:52:20;102073.44;;;9.60;53.69
23473;BME280;11909;52.516;13.564;2024-03-07T11:54:48;102067.81;;;9.55;54.98
23473;BME280;11909;52.516;13.564;2024-03-07T11:57:16;102064.63;;;9.58;56.22
23473;BME280;11909;52.516;13.564;2024-03-07T11:59:47;102061.25;;;9.68;53.61
23473;BME280;11909;52.516;13.564;2024-03-07T12:02:19;102066.00;;;9.72;52.38
23473;BME280;11909;52.516;13.564;2024-03-07T12:04:50;102065.94;;;9.55;54.02
23473;BME280;11909;52.516;13.564;2024-03-07T12:07:19;102061.91;;;9.46;53.74
23473;BME280;11909;52.516;13.564;2024-03-07T12:09:50;102060.69;;;9.54;52.60
23473;BME280;11909;52.516;13.564;2024-03-07T12:12:21;102062.34;;;9.55;51.49
23473;BME280;11909;52.516;13.564;2024-03-07T12:14:54;102057.09;;;9.65;51.32
23473;BME280;11909;52.516;13.564;2024-03-07T12:17:23;102055.06;;;9.60;49.99
23473;BME280;11909;52.516;13.564;2024-03-07T12:19:52;102053.31;;;9.54;49.93
23473;BME280;11909;52.516;13.564;2024-03-07T12:22:22;102049.41;;;9.38;51.57
23473;BME280;11909;52.516;13.564;2024-03-07T12:25:02;102040.59;;;9.24;52.21
23473;BME280;11909;52.516;13.564;2024-03-07T12:27:35;102044.53;;;9.16;49.92
23473;BME280;11909;52.516;13.564;2024-03-07T12:30:16;102041.69;;;9.11;50.90
23473;BME280;11909;52.516;13.564;2024-03-07T12:32:49;102044.66;;;9.10;49.94
23473;BME280;11909;52.516;13.564;2024-03-07T12:35:18;102043.09;;;9.14;50.81
23473;BME280;11909;52.516;13.564;2024-03-07T12:37:47;102032.75;;;9.16;49.30
23473;BME280;11909;52.516;13.564;2024-03-07T12:40:15;102026.78;;;9.19;48.80
23473;BME280;11909;52.516;13.564;2024-03-07T12:42:46;102018.53;;;9.31;49.70
23473;BME280;11909;52.516;13.564;2024-03-07T12:45:17;102029.75;;;9.41;49.83
23473;BME280;11909;52.516;13.564;2024-03-07T12:47:46;102027.34;;;9.45;49.09
23473;BME280;11909;52.516;13.564;2024-03-07T12:50:17;102023.06;;;9.49;49.14
23473;BME280;11909;52.516;13.564;2024-03-07T12:52:47;102018.03;;;9.58;50.25
23473;BME280;11909;52.516;13.564;2024-03-07T12:55:18;102019.09;;;9.69;50.07